createdAt,value
2023-07-19T00:01:05.944Z,5.63
2023-07-19T00:03:33.189Z,6.30
2023-07-19T00:06:03.785Z,5.90
2023-07-19T00:08:32.369Z,6.00
2023-07-19T00:11:00.017Z,5.97
2023-07-19T00:13:26.753Z,6.28
2023-07-19T00:15:54.216Z,6.32
2023-07-19T00:18:20.892Z,5.93
2023-07-19T00:20:48.245Z,6.20
2023-07-19T00:23:15.012Z,5.28
2023-07-19T00:25:42.396Z,5.10
2023-07-19T00:28:09.050Z,5.55
2023-07-19T00:30:36.166Z,5.20
2023-07-19T00:33:05.390Z,4.93
2023-07-19T00:35:33.957Z,4.97
2023-07-19T00:38:01.316Z,5.22
2023-07-19T00:40:28.011Z,5.45
2023-07-19T00:42:58.730Z,5.32
2023-07-19T00:45:29.393Z,4.75
2023-07-19T00:47:57.293Z,5.78
2023-07-19T00:50:24.770Z,5.45
2023-07-19T00:52:53.578Z,4.65
2023-07-19T00:55:21.421Z,5.72
2023-07-19T00:57:49.403Z,5.45
2023-07-19T01:00:16.417Z,5.70
2023-07-19T01:02:45.064Z,4.78
2023-07-19T01:05:11.996Z,5.28
2023-07-19T01:07:40.023Z,5.05
2023-07-19T01:10:07.809Z,4.45
2023-07-19T01:12:35.390Z,5.57
2023-07-19T01:15:06.607Z,4.60
2023-07-19T01:17:34.032Z,4.38
2023-07-19T01:20:00.757Z,4.50
2023-07-19T01:22:34.129Z,4.50
2023-07-19T01:27:29.399Z,5.28
2023-07-19T01:29:56.461Z,4.10
2023-07-19T01:32:23.983Z,4.30
2023-07-19T01:34:50.686Z,4.90
2023-07-19T01:37:17.953Z,5.18
2023-07-19T01:39:45.093Z,4.85
2023-07-19T01:42:13.521Z,4.45
2023-07-19T01:44:40.244Z,4.75
2023-07-19T01:47:07.657Z,4.47
2023-07-19T01:49:34.831Z,4.63
2023-07-19T01:52:01.838Z,4.20
2023-07-19T01:54:29.138Z,4.88
2023-07-19T01:56:55.833Z,3.97
2023-07-19T01:59:23.282Z,4.15
2023-07-19T02:01:50.063Z,3.80
2023-07-19T02:04:17.494Z,3.97
2023-07-19T02:06:44.218Z,3.70
2023-07-19T02:09:11.615Z,4.35
2023-07-19T02:11:38.393Z,4.60
2023-07-19T02:14:06.305Z,5.00
2023-07-19T02:16:33.018Z,4.40
2023-07-19T02:19:00.451Z,4.60
2023-07-19T02:21:27.143Z,4.40
2023-07-19T02:23:54.580Z,4.70
2023-07-19T02:26:22.144Z,4.28
2023-07-19T02:28:49.475Z,4.07
2023-07-19T02:31:16.421Z,4.22
2023-07-19T02:33:43.783Z,4.85
2023-07-19T02:36:12.207Z,4.13
2023-07-19T02:38:41.243Z,4.68
2023-07-19T02:41:08.774Z,4.40
2023-07-19T02:43:36.290Z,5.10
2023-07-19T02:46:03.159Z,5.35
2023-07-19T02:48:30.486Z,5.00
2023-07-19T02:50:59.423Z,4.18
2023-07-19T02:53:27.156Z,4.55
2023-07-19T02:55:53.887Z,5.55
2023-07-19T02:58:21.285Z,4.93
2023-07-19T03:00:47.981Z,4.30
2023-07-19T03:03:15.215Z,4.07
2023-07-19T03:05:46.326Z,4.57
2023-07-19T03:08:13.573Z,4.22
2023-07-19T03:10:41.318Z,4.88
2023-07-19T03:13:08.371Z,4.75
2023-07-19T03:15:36.123Z,4.88
2023-07-19T03:18:04.360Z,4.43
2023-07-19T03:20:32.593Z,5.15
2023-07-19T03:23:01.728Z,5.30
2023-07-19T03:25:30.328Z,5.22
2023-07-19T03:27:58.141Z,4.47
2023-07-19T03:30:26.384Z,4.90
2023-07-19T03:32:53.506Z,4.95
2023-07-19T03:35:22.446Z,4.68
2023-07-19T03:37:50.000Z,4.70
2023-07-19T03:40:18.479Z,4.47
2023-07-19T03:42:45.291Z,4.93
2023-07-19T03:45:13.320Z,4.57
2023-07-19T03:47:41.098Z,4.68
2023-07-19T03:50:09.020Z,5.40
2023-07-19T03:52:36.055Z,4.50
2023-07-19T03:55:05.529Z,5.28
2023-07-19T03:57:35.173Z,5.45
2023-07-19T04:00:02.887Z,4.63
2023-07-19T04:02:31.183Z,5.43
2023-07-19T04:04:58.520Z,4.93
2023-07-19T04:07:26.507Z,5.82
2023-07-19T04:09:53.805Z,5.20
2023-07-19T04:12:21.687Z,5.38
2023-07-19T04:14:49.121Z,5.30
2023-07-19T04:17:19.752Z,5.75
2023-07-19T04:19:47.094Z,6.05
2023-07-19T04:22:14.301Z,6.65
2023-07-19T04:24:41.648Z,6.25
2023-07-19T04:27:09.296Z,5.75
2023-07-19T04:29:36.768Z,5.53
2023-07-19T04:32:04.435Z,5.18
2023-07-19T04:34:32.165Z,5.78
2023-07-19T04:36:58.829Z,5.25
2023-07-19T04:39:26.690Z,5.20
2023-07-19T04:41:54.088Z,5.65
2023-07-19T04:44:21.380Z,6.00
2023-07-19T04:46:48.839Z,6.13
2023-07-19T04:49:17.052Z,5.85
2023-07-19T04:51:44.105Z,6.07
2023-07-19T04:54:11.705Z,6.32
2023-07-19T04:56:38.507Z,6.68
2023-07-19T04:59:06.596Z,6.78
2023-07-19T05:01:34.143Z,6.45
2023-07-19T05:04:00.856Z,6.40
2023-07-19T05:06:28.164Z,6.43
2023-07-19T05:08:54.951Z,7.15
2023-07-19T05:11:23.810Z,6.53
2023-07-19T05:13:51.886Z,7.28
2023-07-19T05:16:18.827Z,7.25
2023-07-19T05:18:46.415Z,6.57
2023-07-19T05:21:15.084Z,6.15
2023-07-19T05:23:42.608Z,5.95
2023-07-19T05:26:09.481Z,6.63
2023-07-19T05:28:37.442Z,7.15
2023-07-19T05:31:05.673Z,6.40
2023-07-19T05:33:34.262Z,6.03
2023-07-19T05:36:01.475Z,6.70
2023-07-19T05:38:29.910Z,6.10
2023-07-19T05:41:07.311Z,6.50
2023-07-19T05:43:35.016Z,7.22
2023-07-19T05:46:09.637Z,6.97
2023-07-19T05:48:37.542Z,7.38
2023-07-19T05:51:06.108Z,6.88
2023-07-19T05:53:34.432Z,7.65
2023-07-19T05:56:01.481Z,7.45
2023-07-19T05:58:29.607Z,8.02
2023-07-19T06:00:57.426Z,7.13
2023-07-19T06:03:24.845Z,7.97
2023-07-19T06:05:51.763Z,7.45
2023-07-19T06:08:25.086Z,7.53
2023-07-19T06:10:53.999Z,7.63
2023-07-19T06:13:21.563Z,7.93
2023-07-19T06:15:49.284Z,8.88
2023-07-19T06:18:16.035Z,7.88
2023-07-19T06:20:43.365Z,8.82
2023-07-19T06:23:10.190Z,8.32
2023-07-19T06:25:37.542Z,7.95
2023-07-19T06:28:04.568Z,8.45
2023-07-19T06:30:35.031Z,7.82
2023-07-19T06:33:04.067Z,8.32
2023-07-19T06:35:34.012Z,8.00
2023-07-19T06:38:01.074Z,7.57
2023-07-19T06:40:28.482Z,7.55
2023-07-19T06:42:55.326Z,7.80
2023-07-19T06:45:22.649Z,8.10
2023-07-19T06:47:49.380Z,9.00
2023-07-19T06:50:16.830Z,8.43
2023-07-19T06:52:43.493Z,8.30
2023-07-19T06:55:10.931Z,8.30
2023-07-19T06:57:37.587Z,7.88
2023-07-19T07:00:07.327Z,7.40
2023-07-19T07:02:34.168Z,7.15
2023-07-19T07:05:01.527Z,6.40
2023-07-19T07:07:28.329Z,6.82
2023-07-19T07:09:55.743Z,6.70
2023-07-19T07:12:23.012Z,6.18
2023-07-19T07:14:51.208Z,6.75
2023-07-19T07:17:18.638Z,6.40
2023-07-19T07:19:46.151Z,6.72
2023-07-19T07:22:12.989Z,6.43
2023-07-19T07:24:41.467Z,6.75
2023-07-19T07:27:08.396Z,6.18
2023-07-19T07:29:36.683Z,6.70
2023-07-19T07:32:03.583Z,6.20
2023-07-19T07:34:30.838Z,6.82
2023-07-19T07:36:57.568Z,7.20
2023-07-19T07:39:25.047Z,7.82
2023-07-19T07:41:51.753Z,6.70
2023-07-19T07:44:18.732Z,7.43
2023-07-19T07:46:48.479Z,8.38
2023-07-19T07:49:15.226Z,7.13
2023-07-19T07:51:43.452Z,6.95
2023-07-19T07:54:10.148Z,7.28
2023-07-19T07:56:37.483Z,6.40
2023-07-19T07:59:04.792Z,7.38
2023-07-19T08:01:31.584Z,7.00
2023-07-19T08:03:58.504Z,7.25
2023-07-19T08:06:25.915Z,7.05
2023-07-19T08:08:52.731Z,6.90
2023-07-19T08:11:22.637Z,7.03
2023-07-19T08:13:49.578Z,6.05
2023-07-19T08:16:17.025Z,7.40
2023-07-19T08:18:43.772Z,8.90
2023-07-19T08:21:21.988Z,9.63
2023-07-19T08:23:56.765Z,7.45
2023-07-19T08:26:24.634Z,6.57
2023-07-19T08:28:51.375Z,6.13
2023-07-19T08:31:20.368Z,5.50
2023-07-19T08:33:47.333Z,6.07
2023-07-19T08:36:14.707Z,6.00
2023-07-19T08:38:41.877Z,6.05
2023-07-19T08:41:13.438Z,5.13
2023-07-19T08:43:42.156Z,5.20
2023-07-19T08:46:16.999Z,6.10
2023-07-19T08:48:50.497Z,6.03
2023-07-19T08:51:19.313Z,6.47
2023-07-19T08:53:46.433Z,6.00
2023-07-19T08:56:15.066Z,6.43
2023-07-19T08:58:44.248Z,5.50
2023-07-19T09:01:13.271Z,5.30
2023-07-19T09:03:40.116Z,4.95
2023-07-19T09:06:07.543Z,5.28
2023-07-19T09:08:42.237Z,5.30
2023-07-19T09:11:09.602Z,5.18
2023-07-19T09:13:39.836Z,5.95
2023-07-19T09:16:08.305Z,5.35
2023-07-19T09:18:39.368Z,4.82
2023-07-19T09:21:07.809Z,5.18
2023-07-19T09:23:37.249Z,5.30
2023-07-19T09:26:06.148Z,4.75
2023-07-19T09:28:35.333Z,5.05
2023-07-19T09:33:34.525Z,4.95
2023-07-19T09:36:01.719Z,3.83
2023-07-19T09:38:29.152Z,4.68
2023-07-19T09:40:56.741Z,4.70
2023-07-19T09:43:24.182Z,4.68
2023-07-19T09:45:52.062Z,4.15
2023-07-19T09:48:22.088Z,4.13
2023-07-19T09:50:53.017Z,3.65
2023-07-19T09:53:24.288Z,3.58
2023-07-19T09:55:54.039Z,3.28
2023-07-19T09:58:22.873Z,2.80
2023-07-19T10:00:50.306Z,2.67
2023-07-19T10:03:23.409Z,3.15
2023-07-19T10:05:59.699Z,3.47
2023-07-19T10:08:28.936Z,2.53
2023-07-19T10:10:59.635Z,2.38
2023-07-19T10:13:31.679Z,3.05
2023-07-19T10:15:58.897Z,3.17
2023-07-19T10:18:26.517Z,2.30
2023-07-19T10:21:04.421Z,2.90
2023-07-19T10:23:32.650Z,2.83
2023-07-19T10:26:10.377Z,2.75
2023-07-19T10:28:39.797Z,2.38
2023-07-19T10:31:27.321Z,2.92
2023-07-19T10:33:56.831Z,2.45
2023-07-19T10:36:24.888Z,2.78
2023-07-19T10:38:52.792Z,3.08
2023-07-19T10:41:20.888Z,2.83
2023-07-19T10:43:52.474Z,2.63
2023-07-19T10:46:23.101Z,2.42
2023-07-19T10:48:52.679Z,2.67
2023-07-19T10:51:20.029Z,2.92
2023-07-19T10:53:49.774Z,2.83
2023-07-19T10:56:17.931Z,2.70
2023-07-19T10:58:45.832Z,2.35
2023-07-19T11:01:13.381Z,2.35
2023-07-19T11:03:45.491Z,2.28
2023-07-19T11:06:12.510Z,2.90
2023-07-19T11:08:39.966Z,2.95
2023-07-19T11:11:08.177Z,2.30
2023-07-19T11:13:35.903Z,2.30
2023-07-19T11:16:02.755Z,2.70
2023-07-19T11:18:42.665Z,3.25
2023-07-19T11:21:10.758Z,2.40
2023-07-19T11:23:43.745Z,3.25
2023-07-19T11:26:12.439Z,2.88
2023-07-19T11:28:50.495Z,3.50
2023-07-19T11:31:34.626Z,2.92
2023-07-19T11:34:14.051Z,3.35
2023-07-19T11:36:42.511Z,4.80
2023-07-19T11:39:19.472Z,3.35
2023-07-19T11:41:47.363Z,2.70
2023-07-19T11:44:24.109Z,3.10
2023-07-19T11:46:52.725Z,2.45
2023-07-19T11:49:20.157Z,4.10
2023-07-19T11:51:47.489Z,3.08
2023-07-19T11:54:16.660Z,4.70
2023-07-19T11:56:43.857Z,2.78
2023-07-19T11:59:11.280Z,2.65
2023-07-19T12:01:38.157Z,2.78
2023-07-19T12:04:05.303Z,2.45
2023-07-19T12:06:32.864Z,3.25
2023-07-19T12:08:59.892Z,2.70
2023-07-19T12:11:27.646Z,2.80
2023-07-19T12:13:58.061Z,2.50
2023-07-19T12:16:26.446Z,2.90
2023-07-19T12:18:53.272Z,2.40
2023-07-19T12:21:20.867Z,2.38
2023-07-19T12:23:58.482Z,2.30
2023-07-19T12:28:57.549Z,2.63
2023-07-19T12:31:25.432Z,2.40
2023-07-19T12:33:52.194Z,2.35
2023-07-19T12:36:20.037Z,2.38
2023-07-19T12:38:46.946Z,1.98
2023-07-19T12:41:14.424Z,1.98
2023-07-19T12:43:41.942Z,1.58
2023-07-19T12:46:09.356Z,2.45
2023-07-19T12:48:37.437Z,2.20
2023-07-19T12:51:05.630Z,2.00
2023-07-19T12:53:32.337Z,2.05
2023-07-19T12:55:59.640Z,1.77
2023-07-19T12:58:26.466Z,1.92
2023-07-19T13:00:54.112Z,1.77
2023-07-19T13:03:21.610Z,1.75
2023-07-19T13:05:50.093Z,1.65
2023-07-19T13:08:16.829Z,2.03
2023-07-19T13:10:44.650Z,1.80
2023-07-19T13:13:11.312Z,1.70
2023-07-19T13:15:39.253Z,1.65
2023-07-19T13:18:07.231Z,1.70
2023-07-19T13:20:34.574Z,1.50
2023-07-19T13:23:02.995Z,1.90
2023-07-19T13:25:30.616Z,1.77
2023-07-19T13:27:57.282Z,1.90
2023-07-19T13:30:25.292Z,1.60
2023-07-19T13:32:52.196Z,1.50
2023-07-19T13:35:54.437Z,1.58
2023-07-19T13:38:08.299Z,1.85
2023-07-19T13:40:38.421Z,1.83
2023-07-19T13:43:05.921Z,1.73
2023-07-19T13:45:34.853Z,1.63
2023-07-19T13:48:02.301Z,2.00
2023-07-19T13:50:29.219Z,2.72
2023-07-19T13:52:56.598Z,2.35
2023-07-19T13:55:23.384Z,1.98
2023-07-19T13:57:50.740Z,2.35
2023-07-19T14:00:17.968Z,2.58
2023-07-19T14:02:46.515Z,1.92
2023-07-19T14:05:14.817Z,2.70
2023-07-19T14:07:42.729Z,2.40
2023-07-19T14:10:09.968Z,2.40
2023-07-19T14:12:38.899Z,2.30
2023-07-19T14:15:07.363Z,2.08
2023-07-19T14:17:35.681Z,2.30
2023-07-19T14:20:02.553Z,2.40
2023-07-19T14:22:29.913Z,2.55
2023-07-19T14:24:56.678Z,2.47
2023-07-19T14:27:24.031Z,1.90
2023-07-19T14:29:53.040Z,1.65
2023-07-19T14:32:22.216Z,1.50
2023-07-19T14:34:49.068Z,1.55
2023-07-19T14:37:17.160Z,1.90
2023-07-19T14:39:44.379Z,2.40
2023-07-19T14:42:13.234Z,2.15
2023-07-19T14:44:40.211Z,1.90
2023-07-19T14:47:07.584Z,2.33
2023-07-19T14:49:34.335Z,2.13
2023-07-19T14:52:03.229Z,2.60
2023-07-19T14:54:30.024Z,1.60
2023-07-19T14:57:05.417Z,1.55
2023-07-19T14:59:33.084Z,1.23
2023-07-19T15:02:01.320Z,1.20
2023-07-19T15:04:28.669Z,1.45
2023-07-19T15:06:56.371Z,1.33
2023-07-19T15:09:25.147Z,1.15
2023-07-19T15:11:52.853Z,1.50
2023-07-19T15:14:20.739Z,1.40
2023-07-19T15:16:47.915Z,1.20
2023-07-19T15:19:15.477Z,1.15
2023-07-19T15:21:42.675Z,1.33
2023-07-19T15:24:10.363Z,1.60
2023-07-19T15:26:38.166Z,1.52
2023-07-19T15:29:05.989Z,1.30
2023-07-19T15:31:33.732Z,1.20
2023-07-19T15:34:02.689Z,1.35
2023-07-19T15:36:30.035Z,1.38
2023-07-19T15:38:57.184Z,1.65
2023-07-19T15:41:24.968Z,1.45
2023-07-19T15:43:52.824Z,1.25
2023-07-19T15:46:19.639Z,1.30
2023-07-19T15:48:47.524Z,1.60
2023-07-19T15:51:14.382Z,2.10
2023-07-19T15:53:41.917Z,2.20
2023-07-19T15:56:10.086Z,1.83
2023-07-19T15:58:37.795Z,2.10
2023-07-19T16:01:07.107Z,1.90
2023-07-19T16:03:35.360Z,3.13
2023-07-19T16:06:02.642Z,2.60
2023-07-19T16:08:30.022Z,2.72
2023-07-19T16:10:56.762Z,2.50
2023-07-19T16:13:23.826Z,2.55
2023-07-19T16:15:50.686Z,2.33
2023-07-19T16:18:17.788Z,2.72
2023-07-19T16:20:44.645Z,3.10
2023-07-19T16:23:11.887Z,2.47
2023-07-19T16:25:39.467Z,2.88
2023-07-19T16:28:06.750Z,2.63
2023-07-19T16:30:33.468Z,2.78
2023-07-19T16:33:00.393Z,2.95
2023-07-19T16:35:28.789Z,2.95
2023-07-19T16:37:55.957Z,2.72
2023-07-19T16:40:23.301Z,3.78
2023-07-19T16:42:50.004Z,2.97
2023-07-19T16:45:17.346Z,2.78
2023-07-19T16:47:44.069Z,2.42
2023-07-19T16:50:13.599Z,2.75
2023-07-19T16:52:42.169Z,2.78
2023-07-19T16:55:11.162Z,2.85
2023-07-19T16:57:39.042Z,2.80
2023-07-19T17:00:17.360Z,3.15
2023-07-19T17:02:45.706Z,2.90
2023-07-19T17:05:12.533Z,3.05
2023-07-19T17:07:40.209Z,3.08
2023-07-19T17:10:08.050Z,2.75
2023-07-19T17:12:34.741Z,2.92
2023-07-19T17:15:02.078Z,3.33
2023-07-19T17:17:28.916Z,2.83
2023-07-19T17:19:56.012Z,2.90
2023-07-19T17:22:22.902Z,3.38
2023-07-19T17:24:50.242Z,3.13
2023-07-19T17:27:17.095Z,2.78
2023-07-19T17:29:44.431Z,3.85
2023-07-19T17:32:11.270Z,3.60
2023-07-19T17:34:38.747Z,3.33
2023-07-19T17:37:06.096Z,3.53
2023-07-19T17:39:33.118Z,3.38
2023-07-19T17:41:59.848Z,3.00
2023-07-19T17:44:27.365Z,3.22
2023-07-19T17:46:54.198Z,2.90
2023-07-19T17:49:21.547Z,2.45
2023-07-19T17:51:48.656Z,2.92
2023-07-19T17:54:16.060Z,2.78
2023-07-19T17:56:42.939Z,2.58
2023-07-19T17:59:10.252Z,2.42
2023-07-19T18:01:37.782Z,2.28
2023-07-19T18:04:04.806Z,1.92
2023-07-19T18:06:32.461Z,2.97
2023-07-19T18:08:59.210Z,2.58
2023-07-19T18:11:26.664Z,2.28
2023-07-19T18:13:53.327Z,2.17
2023-07-19T18:16:20.084Z,2.05
2023-07-19T18:18:46.787Z,1.70
2023-07-19T18:21:14.006Z,2.25
2023-07-19T18:23:41.051Z,2.08
2023-07-19T18:26:08.095Z,2.10
2023-07-19T18:28:36.172Z,2.08
2023-07-19T18:31:04.458Z,1.88
2023-07-19T18:33:31.486Z,2.03
2023-07-19T18:35:58.328Z,2.13
2023-07-19T18:38:24.985Z,2.47
2023-07-19T18:40:51.770Z,2.20
2023-07-19T18:43:18.688Z,2.25
2023-07-19T18:45:46.038Z,2.08
2023-07-19T18:48:13.044Z,2.03
2023-07-19T18:50:40.688Z,2.30
2023-07-19T18:53:07.427Z,2.53
2023-07-19T18:55:34.764Z,2.22
2023-07-19T18:58:01.410Z,2.55
2023-07-19T19:00:30.261Z,2.30
2023-07-19T19:02:57.245Z,2.50
2023-07-19T19:05:24.276Z,2.25
2023-07-19T19:07:52.433Z,2.30
2023-07-19T19:10:20.873Z,2.40
2023-07-19T19:12:48.380Z,2.40
2023-07-19T19:15:15.900Z,2.38
2023-07-19T19:17:42.827Z,2.10
2023-07-19T19:20:09.995Z,2.10
2023-07-19T19:22:37.954Z,1.77
2023-07-19T19:25:06.502Z,2.13
2023-07-19T19:27:34.230Z,2.35
2023-07-19T19:30:01.058Z,1.95
2023-07-19T19:32:28.517Z,2.45
2023-07-19T19:34:55.874Z,2.38
2023-07-19T19:37:22.907Z,1.90
2023-07-19T19:39:49.561Z,2.30
2023-07-19T19:42:17.474Z,2.28
2023-07-19T19:44:44.214Z,2.20
2023-07-19T19:47:12.957Z,3.70
2023-07-19T19:49:40.113Z,5.30
2023-07-19T19:52:07.984Z,3.20
2023-07-19T19:54:35.083Z,2.28
2023-07-19T19:59:33.198Z,2.25
2023-07-19T20:04:30.285Z,2.45
2023-07-19T20:06:57.939Z,2.70
2023-07-19T20:09:30.802Z,2.15
2023-07-19T20:11:59.931Z,2.60
2023-07-19T20:14:27.474Z,2.45
2023-07-19T20:16:54.855Z,2.47
2023-07-19T20:21:53.904Z,2.35
2023-07-19T20:24:25.746Z,2.58
2023-07-19T20:27:00.726Z,2.92
2023-07-19T20:29:28.229Z,2.60
2023-07-19T20:31:55.715Z,3.00
2023-07-19T20:37:31.170Z,2.50
2023-07-19T20:42:14.792Z,2.22
2023-07-19T20:44:41.865Z,2.63
2023-07-19T20:47:08.580Z,2.83
2023-07-19T20:49:40.357Z,2.90
2023-07-19T20:52:08.074Z,2.30
2023-07-19T20:54:35.080Z,2.60
2023-07-19T20:57:01.803Z,2.67
2023-07-19T20:59:28.818Z,2.80
2023-07-19T21:01:55.652Z,3.25
2023-07-19T21:04:23.237Z,2.47
2023-07-19T21:06:50.602Z,2.88
2023-07-19T21:09:17.837Z,3.63
2023-07-19T21:11:44.618Z,2.78
2023-07-19T21:14:11.636Z,3.00
2023-07-19T21:16:38.423Z,2.55
2023-07-19T21:19:05.209Z,2.70
2023-07-19T21:21:31.975Z,2.85
2023-07-19T21:23:58.962Z,2.33
2023-07-19T21:26:26.276Z,3.05
2023-07-19T21:28:52.979Z,3.00
2023-07-19T21:31:20.932Z,3.17
2023-07-19T21:33:48.104Z,2.97
2023-07-19T21:36:15.095Z,2.75
2023-07-19T21:38:41.749Z,2.75
2023-07-19T21:41:08.815Z,2.90
2023-07-19T21:43:37.309Z,3.08
2023-07-19T21:46:04.708Z,2.63
2023-07-19T21:48:31.513Z,3.17
2023-07-19T21:50:58.813Z,3.03
2023-07-19T21:53:25.559Z,2.92
2023-07-19T21:55:53.037Z,2.60
2023-07-19T21:58:19.715Z,2.60
2023-07-19T22:00:47.604Z,3.20
2023-07-19T22:03:15.153Z,2.70
2023-07-19T22:05:43.127Z,3.10
2023-07-19T22:08:10.158Z,3.67
2023-07-19T22:10:37.459Z,3.90
2023-07-19T22:13:06.499Z,3.83
2023-07-19T22:15:33.476Z,3.63
2023-07-19T22:18:26.269Z,3.47
2023-07-19T22:20:58.713Z,3.97
2023-07-19T22:23:31.540Z,4.68
2023-07-19T22:25:59.009Z,4.10
2023-07-19T22:28:25.657Z,4.05
2023-07-19T22:30:57.017Z,4.13
2023-07-19T22:33:25.322Z,4.32
2023-07-19T22:35:52.215Z,4.47
2023-07-19T22:38:19.579Z,4.60
2023-07-19T22:40:47.504Z,4.03
2023-07-19T22:43:14.880Z,3.97
2023-07-19T22:45:41.632Z,4.82
2023-07-19T22:48:08.971Z,4.22
2023-07-19T22:50:35.797Z,4.85
2023-07-19T22:53:04.131Z,5.20
2023-07-19T22:55:30.886Z,5.30
2023-07-19T22:57:58.271Z,4.93
2023-07-19T23:00:25.136Z,5.25
2023-07-19T23:02:52.959Z,5.05
2023-07-19T23:05:19.737Z,4.97
2023-07-19T23:07:47.178Z,6.68
2023-07-19T23:10:14.440Z,5.45
2023-07-19T23:12:42.256Z,5.53
2023-07-19T23:15:09.847Z,5.05
2023-07-19T23:17:37.427Z,5.05
2023-07-19T23:20:06.994Z,6.10
2023-07-19T23:22:34.597Z,5.20
2023-07-19T23:25:01.336Z,5.60
2023-07-19T23:27:28.675Z,5.45
2023-07-19T23:29:55.666Z,6.03
2023-07-19T23:32:23.660Z,5.00
2023-07-19T23:34:51.148Z,5.53
2023-07-19T23:37:19.370Z,5.18
2023-07-19T23:39:46.590Z,5.20
2023-07-19T23:42:13.641Z,5.63
2023-07-19T23:44:41.028Z,5.60
2023-07-19T23:47:09.385Z,5.20
2023-07-19T23:49:37.845Z,4.75
2023-07-19T23:52:05.260Z,5.03
2023-07-19T23:54:32.597Z,4.80
2023-07-19T23:56:59.726Z,5.20
2023-07-19T23:59:27.234Z,5.03
